sensor_id;sensor_type;location;lat;lon;timestamp;pressure;altitude;pressure_sealevel;temperature
18474;BMP180;30265;52.408;13.500;2023-03-02T00:03:00;103022.00;;;4.50
18474;BMP180;30265;52.408;13.500;2023-03-02T00:13:22;103028.00;;;4.50
18474;BMP180;30265;52.408;13.500;2023-03-02T00:23:46;103052.00;;;4.20
18474;BMP180;30265;52.408;13.500;2023-03-02T00:34:07;103048.00;;;3.90
18474;BMP180;30265;52.408;13.500;2023-03-02T00:44:30;103042.00;;;3.90
18474;BMP180;30265;52.408;13.500;2023-03-02T00:54:51;103022.00;;;4.40
18474;BMP180;30265;52.408;13.500;2023-03-02T01:05:15;103041.00;;;3.70
18474;BMP180;30265;52.408;13.500;2023-03-02T01:15:38;103031.00;;;4.00
18474;BMP180;30265;52.408;13.500;2023-03-02T01:26:01;103037.00;;;3.80
18474;BMP180;30265;52.408;13.500;2023-03-02T01:36:22;103018.00;;;4.20
18474;BMP180;30265;52.408;13.500;2023-03-02T01:46:52;103013.00;;;4.10
18474;BMP180;30265;52.408;13.500;2023-03-02T01:57:19;103002.00;;;3.80
18474;BMP180;30265;52.408;13.500;2023-03-02T02:07:43;103013.00;;;3.50
18474;BMP180;30265;52.408;13.500;2023-03-02T02:18:07;102982.00;;;3.70
18474;BMP180;30265;52.408;13.500;2023-03-02T02:28:34;102984.00;;;3.50
18474;BMP180;30265;52.408;13.500;2023-03-02T02:39:02;102985.00;;;3.50
18474;BMP180;30265;52.408;13.500;2023-03-02T02:49:29;102988.00;;;3.70
18474;BMP180;30265;52.408;13.500;2023-03-02T02:59:54;102973.00;;;3.90
18474;BMP180;30265;52.408;13.500;2023-03-02T03:10:22;102980.00;;;3.40
18474;BMP180;30265;52.408;13.500;2023-03-02T03:20:43;102978.00;;;3.40
18474;BMP180;30265;52.408;13.500;2023-03-02T03:31:06;102973.00;;;3.00
18474;BMP180;30265;52.408;13.500;2023-03-02T03:41:28;102965.00;;;3.40
18474;BMP180;30265;52.408;13.500;2023-03-02T03:51:52;102954.00;;;3.80
18474;BMP180;30265;52.408;13.500;2023-03-02T04:02:14;102971.00;;;3.00
18474;BMP180;30265;52.408;13.500;2023-03-02T04:12:39;102972.00;;;2.70
18474;BMP180;30265;52.408;13.500;2023-03-02T04:23:02;102973.00;;;2.60
18474;BMP180;30265;52.408;13.500;2023-03-02T04:33:25;102966.00;;;2.70
18474;BMP180;30265;52.408;13.500;2023-03-02T04:43:47;102975.00;;;2.90
18474;BMP180;30265;52.408;13.500;2023-03-02T04:54:14;102999.00;;;2.40
18474;BMP180;30265;52.408;13.500;2023-03-02T05:04:36;102983.00;;;2.40
18474;BMP180;30265;52.408;13.500;2023-03-02T05:15:00;102953.00;;;3.40
18474;BMP180;30265;52.408;13.500;2023-03-02T05:25:22;102961.00;;;3.00
18474;BMP180;30265;52.408;13.500;2023-03-02T05:35:46;102970.00;;;3.20
18474;BMP180;30265;52.408;13.500;2023-03-02T05:46:07;102972.00;;;3.20
18474;BMP180;30265;52.408;13.500;2023-03-02T05:56:30;102967.00;;;3.30
18474;BMP180;30265;52.408;13.500;2023-03-02T06:06:52;102957.00;;;3.20
18474;BMP180;30265;52.408;13.500;2023-03-02T06:17:15;102969.00;;;3.50
18474;BMP180;30265;52.408;13.500;2023-03-02T06:28:04;102971.00;;;3.70
18474;BMP180;30265;52.408;13.500;2023-03-02T06:38:26;102959.00;;;4.20
18474;BMP180;30265;52.408;13.500;2023-03-02T06:48:48;102962.00;;;4.60
18474;BMP180;30265;52.408;13.500;2023-03-02T06:59:11;102946.00;;;5.00
18474;BMP180;30265;52.408;13.500;2023-03-02T07:09:32;102951.00;;;5.00
18474;BMP180;30265;52.408;13.500;2023-03-02T07:19:55;102940.00;;;5.30
18474;BMP180;30265;52.408;13.500;2023-03-02T07:30:16;102948.00;;;5.40
18474;BMP180;30265;52.408;13.500;2023-03-02T07:40:41;102944.00;;;5.50
18474;BMP180;30265;52.408;13.500;2023-03-02T07:51:05;102945.00;;;5.50
18474;BMP180;30265;52.408;13.500;2023-03-02T08:01:28;102937.00;;;5.50
18474;BMP180;30265;52.408;13.500;2023-03-02T08:11:51;102955.00;;;5.10
18474;BMP180;30265;52.408;13.500;2023-03-02T08:22:14;102951.00;;;5.00
18474;BMP180;30265;52.408;13.500;2023-03-02T08:32:36;102945.00;;;5.00
18474;BMP180;30265;52.408;13.500;2023-03-02T08:42:59;102942.00;;;5.10
18474;BMP180;30265;52.408;13.500;2023-03-02T08:53:20;102938.00;;;5.00
18474;BMP180;30265;52.408;13.500;2023-03-02T09:03:43;102934.00;;;5.20
18474;BMP180;30265;52.408;13.500;2023-03-02T09:14:05;102937.00;;;5.00
18474;BMP180;30265;52.408;13.500;2023-03-02T09:24:28;102914.00;;;5.50
18474;BMP180;30265;52.408;13.500;2023-03-02T09:34:51;102906.00;;;6.10
18474;BMP180;30265;52.408;13.500;2023-03-02T09:45:24;102914.00;;;5.30
18474;BMP180;30265;52.408;13.500;2023-03-02T09:55:53;102888.00;;;5.90
18474;BMP180;30265;52.408;13.500;2023-03-02T10:06:16;102889.00;;;6.20
18474;BMP180;30265;52.408;13.500;2023-03-02T10:16:45;102913.00;;;5.90
18474;BMP180;30265;52.408;13.500;2023-03-02T10:27:15;102896.00;;;6.10
18474;BMP180;30265;52.408;13.500;2023-03-02T10:37:38;102862.00;;;7.20
18474;BMP180;30265;52.408;13.500;2023-03-02T10:48:01;102873.00;;;7.20
18474;BMP180;30265;52.408;13.500;2023-03-02T10:58:28;102873.00;;;6.50
18474;BMP180;30265;52.408;13.500;2023-03-02T11:09:00;102851.00;;;7.20
18474;BMP180;30265;52.408;13.500;2023-03-02T11:19:28;102862.00;;;6.70
18474;BMP180;30265;52.408;13.500;2023-03-02T11:29:57;102832.00;;;7.90
18474;BMP180;30265;52.408;13.500;2023-03-02T11:40:21;102829.00;;;7.40
18474;BMP180;30265;52.408;13.500;2023-03-02T11:50:52;102816.00;;;8.50
18474;BMP180;30265;52.408;13.500;2023-03-02T12:01:20;102808.00;;;8.80
18474;BMP180;30265;52.408;13.500;2023-03-02T12:11:44;102776.00;;;10.00
18474;BMP180;30265;52.408;13.500;2023-03-02T12:22:07;102766.00;;;9.90
18474;BMP180;30265;52.408;13.500;2023-03-02T12:32:32;102747.00;;;9.10
18474;BMP180;30265;52.408;13.500;2023-03-02T12:53:44;102723.00;;;10.10
18474;BMP180;30265;52.408;13.500;2023-03-02T13:04:05;102723.00;;;9.50
18474;BMP180;30265;52.408;13.500;2023-03-02T13:14:28;102707.00;;;9.70
18474;BMP180;30265;52.408;13.500;2023-03-02T13:24:55;102697.00;;;9.70
18474;BMP180;30265;52.408;13.500;2023-03-02T13:35:19;102715.00;;;9.30
18474;BMP180;30265;52.408;13.500;2023-03-02T13:45:50;102702.00;;;9.60
18474;BMP180;30265;52.408;13.500;2023-03-02T13:56:15;102690.00;;;9.20
18474;BMP180;30265;52.408;13.500;2023-03-02T14:06:38;102696.00;;;8.60
18474;BMP180;30265;52.408;13.500;2023-03-02T14:17:01;102676.00;;;8.90
18474;BMP180;30265;52.408;13.500;2023-03-02T14:27:23;102681.00;;;8.40
18474;BMP180;30265;52.408;13.500;2023-03-02T14:37:48;102672.00;;;8.00
18474;BMP180;30265;52.408;13.500;2023-03-02T14:48:09;102659.00;;;8.30
18474;BMP180;30265;52.408;13.500;2023-03-02T14:58:33;102664.00;;;7.70
18474;BMP180;30265;52.408;13.500;2023-03-02T15:08:55;102671.00;;;7.40
18474;BMP180;30265;52.408;13.500;2023-03-02T15:19:19;102681.00;;;7.10
18474;BMP180;30265;52.408;13.500;2023-03-02T15:29:42;102680.00;;;7.10
18474;BMP180;30265;52.408;13.500;2023-03-02T15:40:07;102679.00;;;6.90
18474;BMP180;30265;52.408;13.500;2023-03-02T15:50:29;102654.00;;;7.30
18474;BMP180;30265;52.408;13.500;2023-03-02T16:00:51;102668.00;;;6.70
18474;BMP180;30265;52.408;13.500;2023-03-02T16:11:13;102661.00;;;6.70
18474;BMP180;30265;52.408;13.500;2023-03-02T16:21:39;102662.00;;;6.50
18474;BMP180;30265;52.408;13.500;2023-03-02T16:32:01;102665.00;;;6.50
18474;BMP180;30265;52.408;13.500;2023-03-02T16:42:24;102676.00;;;6.30
18474;BMP180;30265;52.408;13.500;2023-03-02T16:52:49;102678.00;;;6.10
18474;BMP180;30265;52.408;13.500;2023-03-02T17:03:13;102682.00;;;6.00
18474;BMP180;30265;52.408;13.500;2023-03-02T17:13:41;102693.00;;;6.00
18474;BMP180;30265;52.408;13.500;2023-03-02T17:24:07;102713.00;;;5.40
18474;BMP180;30265;52.408;13.500;2023-03-02T17:34:28;102719.00;;;5.50
18474;BMP180;30265;52.408;13.500;2023-03-02T17:44:54;102723.00;;;5.30
18474;BMP180;30265;52.408;13.500;2023-03-02T17:55:22;102726.00;;;5.00
18474;BMP180;30265;52.408;13.500;2023-03-02T18:05:51;102730.00;;;5.20
18474;BMP180;30265;52.408;13.500;2023-03-02T18:16:15;102739.00;;;5.00
18474;BMP180;30265;52.408;13.500;2023-03-02T18:26:43;102734.00;;;5.10
18474;BMP180;30265;52.408;13.500;2023-03-02T18:37:05;102744.00;;;5.20
18474;BMP180;30265;52.408;13.500;2023-03-02T18:47:29;102737.00;;;5.30
18474;BMP180;30265;52.408;13.500;2023-03-02T18:57:52;102755.00;;;5.00
18474;BMP180;30265;52.408;13.500;2023-03-02T19:08:15;102755.00;;;4.80
18474;BMP180;30265;52.408;13.500;2023-03-02T19:18:42;102743.00;;;4.90
18474;BMP180;30265;52.408;13.500;2023-03-02T19:29:10;102760.00;;;4.80
18474;BMP180;30265;52.408;13.500;2023-03-02T19:39:32;102752.00;;;4.90
18474;BMP180;30265;52.408;13.500;2023-03-02T19:49:55;102750.00;;;4.90
18474;BMP180;30265;52.408;13.500;2023-03-02T20:00:18;102742.00;;;5.20
18474;BMP180;30265;52.408;13.500;2023-03-02T20:10:42;102747.00;;;5.20
18474;BMP180;30265;52.408;13.500;2023-03-02T20:21:07;102763.00;;;5.10
18474;BMP180;30265;52.408;13.500;2023-03-02T20:31:37;102767.00;;;5.20
18474;BMP180;30265;52.408;13.500;2023-03-02T20:41:59;102766.00;;;5.20
18474;BMP180;30265;52.408;13.500;2023-03-02T20:52:23;102750.00;;;5.20
18474;BMP180;30265;52.408;13.500;2023-03-02T21:02:45;102762.00;;;5.30
18474;BMP180;30265;52.408;13.500;2023-03-02T21:13:08;102776.00;;;5.00
18474;BMP180;30265;52.408;13.500;2023-03-02T21:23:31;102760.00;;;5.00
18474;BMP180;30265;52.408;13.500;2023-03-02T21:33:54;102768.00;;;5.00
18474;BMP180;30265;52.408;13.500;2023-03-02T21:44:17;102764.00;;;4.90
18474;BMP180;30265;52.408;13.500;2023-03-02T21:54:40;102761.00;;;5.00
18474;BMP180;30265;52.408;13.500;2023-03-02T22:05:02;102762.00;;;5.00
18474;BMP180;30265;52.408;13.500;2023-03-02T22:15:26;102762.00;;;4.80
18474;BMP180;30265;52.408;13.500;2023-03-02T22:25:48;102750.00;;;4.80
18474;BMP180;30265;52.408;13.500;2023-03-02T22:36:15;102758.00;;;4.80
18474;BMP180;30265;52.408;13.500;2023-03-02T22:46:39;102752.00;;;4.70
18474;BMP180;30265;52.408;13.500;2023-03-02T22:57:02;102731.00;;;4.60
18474;BMP180;30265;52.408;13.500;2023-03-02T23:07:26;102714.00;;;4.70
18474;BMP180;30265;52.408;13.500;2023-03-02T23:17:49;102731.00;;;4.50
18474;BMP180;30265;52.408;13.500;2023-03-02T23:28:11;102711.00;;;4.50
18474;BMP180;30265;52.408;13.500;2023-03-02T23:38:34;102685.00;;;4.80
18474;BMP180;30265;52.408;13.500;2023-03-02T23:48:56;102698.00;;;4.70
18474;BMP180;30265;52.408;13.500;2023-03-02T23:59:19;102711.00;;;4.80
